Terminal Aerodrome Forecast
Issued by NWS Tiyan, Guam

Home | Current Version | Previous Version | Text Only | Print | Product List | Glossary On
Versions: 1 2 3 4 5 6 7 8 9 10 11 12 13 14 15
000
FTPQ31 PGUM 041731
TAFGUM
TAF
PGUM 041731Z 0418/0524 09010KT P6SM VCSH FEW018 SCT120
     FM042300 08013G22KT P6SM VCSH SCT018 SCT120=

USA.gov is the U.S. government's official web portal to all federal, state and local government web resources and services.